Data for 01/09/2015

Time Sea-Level Adjusted Pressure Absolute Pressure Temperature Relative Humidity Dew Point   
(mb) (inHg) (mb) (inHg) (C) (F) (%) (C) (F)
00:05 1030 30.42 859 25.37 -11.6 11.1 83 -13.9 6.9
00:10 1030 30.42 859 25.37 -11.6 11.1 84 -13.9 7.1
00:15 1030 30.42 859 25.37 -11.7 11 84 -13.9 7
00:20 1030 30.42 859 25.37 -11.8 10.8 84 -14 6.8
00:25 1030 30.42 859 25.37 -11.7 10.9 84 -13.9 7.1
00:30 1030 30.42 859 25.37 -11.6 11.1 84 -13.9 7
00:35 1030 30.42 859 25.37 -11.7 10.9 83 -14 6.7
00:40 1030 30.42 859 25.37 -11.8 10.8 84 -14 6.9
00:45 1030 30.42 859 25.37 -11.7 10.9 84 -14 6.9
00:50 1030 30.42 859 25.37 -11.7 11 85 -13.7 7.3
00:55 1029 30.39 859 25.37 -11.6 11 85 -13.6 7.5
01:00 1029 30.39 859 25.37 -11.7 11 85 -13.7 7.3
01:05 1029 30.39 859 25.37 -11.7 10.9 85 -13.8 7.2
01:10 1029 30.39 858 25.34 -11.8 10.9 85 -13.8 7.2
01:15 1029 30.39 858 25.34 -11.7 10.9 86 -13.7 7.3
01:20 1029 30.39 858 25.34 -11.7 10.9 85 -13.8 7.2
01:25 1029 30.39 858 25.34 -11.7 10.9 85 -13.8 7.2
01:30 1029 30.39 858 25.34 -11.7 10.9 85 -13.7 7.3
01:35 1029 30.39 858 25.34 -11.7 11 84 -13.8 7.1
01:40 1029 30.39 858 25.34 -11.7 11 84 -13.9 7
01:45 1029 30.39 858 25.34 -11.7 11 84 -13.9 7
01:50 1029 30.39 858 25.34 -11.8 10.8 84 -14 6.9
01:55 1029 30.39 858 25.34 -11.8 10.7 84 -14 6.8
02:00 1029 30.39 858 25.34 -11.8 10.7 85 -13.9 6.9
02:05 1029 30.39 858 25.34 -11.8 10.9 85 -13.9 7.1
02:10 1029 30.39 858 25.34 -11.8 10.7 85 -13.8 7.1
02:15 1029 30.39 858 25.34 -11.7 10.9 84 -13.9 7
02:20 1029 30.39 858 25.34 -11.7 10.9 85 -13.8 7.1
02:25 1029 30.39 858 25.34 -11.8 10.8 85 -13.7 7.3
02:30 1029 30.39 858 25.34 -11.7 10.9 85 -13.7 7.3
02:35 1028 30.36 858 25.34 -11.7 11 86 -13.6 7.6
02:40 1028 30.36 858 25.34 -11.6 11.2 85 -13.5 7.6
02:45 1028 30.36 858 25.34 -11.5 11.3 84 -13.7 7.4
02:50 1028 30.36 858 25.34 -11.7 11 84 -13.8 7.2
02:55 1028 30.36 857 25.31 -11.7 11 85 -13.7 7.3
03:00 1028 30.36 857 25.31 -11.6 11.1 85 -13.7 7.3
03:05 1028 30.36 857 25.31 -11.7 11 85 -13.7 7.3
03:10 1028 30.36 857 25.31 -11.8 10.8 86 -13.7 7.4
03:15 1028 30.36 857 25.31 -11.8 10.8 85 -13.8 7.2
03:20 1028 30.36 857 25.31 -11.9 10.5 86 -13.8 7.2
03:25 1028 30.36 857 25.31 -12 10.4 86 -13.8 7.1
03:30 1028 30.36 857 25.31 -12 10.3 86 -13.9 7
03:35 1028 30.36 857 25.31 -12 10.3 86 -13.9 7
03:40 1028 30.36 857 25.31 -12 10.4 87 -13.8 7.2
03:45 1028 30.36 857 25.31 -12 10.5 86 -13.9 7
03:50 1028 30.36 857 25.31 -12.1 10.3 87 -13.9 7
03:55 1028 30.36 857 25.31 -12.1 10.2 86 -13.9 6.9
04:00 1028 30.36 857 25.31 -12 10.3 86 -14 6.8
04:05 1028 30.36 857 25.31 -12 10.4 85 -14 6.8
04:10 1028 30.36 857 25.31 -12 10.3 85 -14 6.8
04:15 1028 30.36 857 25.31 -12.1 10.2 86 -14 6.9
04:20 1028 30.36 857 25.31 -12.1 10.2 85 -14.1 6.6
04:25 1028 30.36 857 25.31 -12.2 10 85 -14.2 6.4
04:30 1028 30.36 857 25.31 -12.3 9.9 86 -14.1 6.6
04:35 1028 30.36 857 25.31 -12.2 10 86 -14.1 6.6
04:40 1028 30.36 857 25.31 -12.2 10.1 86 -14.1 6.6
04:45 1028 30.36 857 25.31 -12.2 10.1 85 -14.1 6.6
04:50 1028 30.36 857 25.31 -12.2 10 86 -14.1 6.5
04:55 1027 30.33 857 25.31 -12.3 9.9 86 -14.2 6.4
05:00 1027 30.33 857 25.31 -12.4 9.8 86 -14.2 6.4
05:05 1027 30.33 857 25.31 -12.3 9.8 86 -14.2 6.4
05:10 1027 30.33 857 25.31 -12.3 9.9 86 -14.2 6.4
05:15 1027 30.33 856 25.28 -12.4 9.7 86 -14.3 6.3
05:20 1027 30.33 856 25.28 -12.4 9.7 86 -14.3 6.3
05:25 1027 30.33 856 25.28 -12.4 9.6 86 -14.4 6.1
05:30 1027 30.33 856 25.28 -12.5 9.5 87 -14.3 6.2
05:35 1027 30.33 856 25.28 -12.4 9.7 86 -14.3 6.2
05:40 1027 30.33 856 25.28 -12.6 9.4 86 -14.4 6
05:45 1027 30.33 856 25.28 -12.6 9.4 87 -14.4 6.1
05:50 1027 30.33 856 25.28 -12.6 9.4 86 -14.4 6.1
05:55 1027 30.33 856 25.28 -12.5 9.4 86 -14.4 6
06:00 1027 30.33 856 25.28 -12.6 9.2 87 -14.4 6.1
06:05 1027 30.33 856 25.28 -12.6 9.3 86 -14.5 5.9
06:10 1026 30.3 856 25.28 -12.8 9 86 -14.7 5.5
06:15 1026 30.3 856 25.28 -12.8 8.9 86 -14.7 5.5
06:20 1026 30.3 856 25.28 -12.9 8.8 86 -14.8 5.3
06:25 1026 30.3 856 25.28 -13 8.6 86 -15 5.1
06:30 1026 30.3 856 25.28 -13 8.6 86 -14.9 5.3
06:35 1026 30.3 856 25.28 -13 8.6 86 -14.8 5.3
06:40 1026 30.3 855 25.25 -13 8.6 86 -14.8 5.3
06:45 1026 30.3 855 25.25 -13 8.6 87 -14.8 5.4
06:50 1026 30.3 855 25.25 -13 8.6 87 -14.7 5.5
06:55 1026 30.3 855 25.25 -13 8.5 86 -14.9 5.2
07:00 1026 30.3 855 25.25 -13.3 8.2 87 -15 5
07:05 1026 30.3 855 25.25 -13.3 8 88 -14.9 5.1
07:10 1026 30.3 855 25.25 -13.3 8 88 -15 5.1
07:15 1026 30.3 855 25.25 -13.3 8.1 87 -14.9 5.1
07:20 1026 30.3 855 25.25 -13.3 8.1 88 -14.9 5.3
07:25 1026 30.3 855 25.25 -13.3 8.1 88 -14.9 5.2
07:30 1026 30.3 855 25.25 -13.3 8.1 88 -14.9 5.1
07:35 1026 30.3 855 25.25 -13.2 8.2 88 -14.8 5.3
07:40 1026 30.3 855 25.25 -13.2 8.2 86 -15 4.9
07:45 1026 30.3 855 25.25 -13.4 7.9 88 -15 5
07:50 1026 30.3 855 25.25 -13.3 8 88 -14.9 5.1
07:55 1026 30.3 855 25.25 -13.2 8.2 88 -14.8 5.3
08:00 1026 30.3 855 25.25 -13.2 8.3 88 -14.7 5.5
08:05 1026 30.3 855 25.25 -13.3 8.1 88 -14.9 5.1
08:10 1026 30.3 855 25.25 -13.4 7.8 88 -15.1 4.8
08:15 1026 30.3 855 25.25 -13.6 7.6 89 -15.1 4.9
08:20 1026 30.3 855 25.25 -13.7 7.4 89 -15.1 4.8
08:25 1026 30.3 855 25.25 -13.7 7.3 89 -15.2 4.6
08:30 1025 30.27 855 25.25 -13.7 7.3 89 -15.2 4.6
08:35 1025 30.27 855 25.25 -13.8 7.2 89 -15.2 4.6
08:40 1025 30.27 855 25.25 -13.7 7.3 89 -15.2 4.7
08:45 1025 30.27 855 25.25 -13.7 7.3 89 -15.2 4.6
08:50 1025 30.27 855 25.25 -13.8 7.2 89 -15.3 4.5
08:55 1025 30.27 855 25.25 -13.7 7.3 89 -15.2 4.6
09:00 1025 30.27 855 25.25 -13.7 7.4 88 -15.2 4.6
09:05 1025 30.27 855 25.25 -13.7 7.4 89 -15.2 4.6
09:10 1025 30.27 855 25.25 -13.7 7.3 88 -15.2 4.6
09:15 1025 30.27 855 25.25 -13.7 7.4 89 -15.1 4.7
09:20 1025 30.27 855 25.25 -13.5 7.7 88 -15.1 4.8
09:25 1025 30.27 855 25.25 -13.5 7.7 88 -15.1 4.8
09:30 1025 30.27 855 25.25 -13.6 7.6 88 -15.1 4.8
09:35 1025 30.27 855 25.25 -13.5 7.7 87 -15.2 4.7
09:40 1025 30.27 855 25.25 -13.6 7.5 87 -15.3 4.5
09:45 1025 30.27 854 25.22 -13.5 7.6 87 -15.2 4.6
09:50 1025 30.27 854 25.22 -13.5 7.7 87 -15.2 4.7
09:55 1025 30.27 854 25.22 -13.5 7.7 88 -15.1 4.8
10:00 1025 30.27 854 25.22 -13.3 8 88 -14.9 5.2
10:05 1025 30.27 854 25.22 -13.2 8.2 88 -14.8 5.3
10:10 1025 30.27 854 25.22 -13.2 8.3 88 -14.8 5.4
10:15 1025 30.27 854 25.22 -13.1 8.4 88 -14.7 5.6
10:20 1025 30.27 854 25.22 -13.1 8.5 88 -14.7 5.6
10:25 1025 30.27 854 25.22 -13 8.5 88 -14.6 5.6
10:30 1025 30.27 854 25.22 -12.9 8.7 87 -14.7 5.6
10:35 1025 30.27 854 25.22 -13 8.7 87 -14.7 5.6
10:40 1025 30.27 854 25.22 -12.9 8.8 87 -14.6 5.7
10:45 1025 30.27 854 25.22 -12.9 8.8 87 -14.6 5.8
10:50 1025 30.27 854 25.22 -12.9 8.9 86 -14.7 5.6
10:55 1025 30.27 854 25.22 -12.8 9 87 -14.6 5.8
11:00 1025 30.27 854 25.22 -12.8 9 86 -14.7 5.6
11:05 1025 30.27 854 25.22 -12.8 9 87 -14.5 5.9
11:10 1025 30.27 854 25.22 -12.4 9.6 87 -14.2 6.4
11:15 1025 30.27 854 25.22 -12.6 9.3 87 -14.3 6.2
11:20 1025 30.27 854 25.22 -12.9 8.8 88 -14.4 6
11:25 1025 30.27 854 25.22 -12.7 9.2 87 -14.4 6.1
11:30 1025 30.27 854 25.22 -12.7 9.1 88 -14.4 6.1
11:35 1025 30.27 854 25.22 -12.8 8.9 87 -14.5 5.9
11:40 1025 30.27 854 25.22 -12.6 9.4 87 -14.3 6.3
11:45 1024 30.24 854 25.22 -12.5 9.5 88 -14.2 6.5
11:50 1024 30.24 854 25.22 -12.5 9.4 87 -14.2 6.4
11:55 1024 30.24 854 25.22 -12.5 9.5 89 -14 6.8
12:00 1024 30.24 853 25.19 -12.2 10.1 88 -13.7 7.3
12:05 1024 30.24 853 25.19 -12.1 10.1 88 -13.8 7.2
12:10 1024 30.24 853 25.19 -12.4 9.8 88 -14 6.8
12:15 1024 30.24 853 25.19 -12.3 9.9 88 -13.8 7.1
12:20 1024 30.24 853 25.19 -12.1 10.2 89 -13.6 7.5
12:25 1024 30.24 853 25.19 -11.8 10.8 88 -13.4 7.9
12:30 1024 30.24 853 25.19 -11.3 11.7 87 -13.1 8.5
12:35 1024 30.24 853 25.19 -11.2 11.9 87 -13 8.6
12:40 1024 30.24 853 25.19 -11.2 11.9 86 -13 8.6
12:45 1024 30.24 853 25.19 -11.3 11.7 85 -13.3 8.1
12:50 1023 30.21 853 25.19 -11.5 11.3 86 -13.4 7.9
12:55 1023 30.21 853 25.19 -11.4 11.6 86 -13.3 8.1
13:00 1023 30.21 852 25.16 -11.1 12 86 -13.1 8.5
13:05 1023 30.21 852 25.16 -10.8 12.5 86 -12.7 9.1
13:10 1023 30.21 852 25.16 -10.6 12.9 84 -12.8 9
13:15 1023 30.21 852 25.16 -10.7 12.7 84 -12.8 8.9
13:20 1023 30.21 852 25.16 -10.5 13 83 -12.9 8.8
13:25 1023 30.21 852 25.16 -10.8 12.6 84 -13 8.5
13:30 1022 30.18 852 25.16 -10.8 12.6 82 -13.3 8.1
13:35 1022 30.18 852 25.16 -10.7 12.7 81 -13.3 8
13:40 1022 30.18 851 25.13 -10.7 12.8 82 -13.2 8.2
13:45 1022 30.18 851 25.13 -10.4 13.3 79 -13.3 8.1
13:50 1022 30.18 851 25.13 -10.4 13.3 82 -13 8.7
13:55 1022 30.18 851 25.13 -9.9 14.2 79 -12.9 8.8
14:00 1022 30.18 851 25.13 -9.9 14.1 78 -13 8.6
14:05 1022 30.18 851 25.13 -10 14 79 -13 8.6
14:10 1021 30.15 851 25.13 -9.8 14.4 79 -12.8 8.9
14:15 1021 30.15 851 25.13 -9.5 14.9 79 -12.5 9.5
14:20 1021 30.15 850 25.1 -9.6 14.7 78 -12.7 9.1
14:25 1021 30.15 850 25.1 -9.7 14.5 79 -12.7 9.1
14:30 1021 30.15 850 25.1 -9.9 14.2 79 -12.8 9
14:35 1021 30.15 850 25.1 -9.3 15.3 76 -12.7 9.1
14:40 1021 30.15 850 25.1 -9.4 15 76 -12.8 8.9
14:45 1021 30.15 850 25.1 -9.6 14.7 78 -12.8 9
14:50 1021 30.15 850 25.1 -10.1 13.8 80 -12.9 8.8
14:55 1021 30.15 850 25.1 -9.8 14.3 78 -13 8.7
15:00 1021 30.15 850 25.1 -9.9 14.2 79 -12.8 8.9
15:05 1020 30.12 850 25.1 -9.8 14.4 78 -12.9 8.7
15:10 1020 30.12 850 25.1 -9.7 14.6 78 -12.8 8.9
15:15 1020 30.12 850 25.1 -9.5 14.9 77 -12.9 8.8
15:20 1020 30.12 850 25.1 -9.4 15.2 77 -12.7 9.2
15:25 1021 30.15 850 25.1 -9.2 15.4 76 -12.7 9.2
15:30 1020 30.12 850 25.1 -9.5 14.9 77 -12.7 9.1
15:35 1021 30.15 850 25.1 -9.4 15 77 -12.7 9.1
15:40 1021 30.15 850 25.1 -9.7 14.6 78 -12.9 8.9
15:45 1020 30.12 850 25.1 -10 14.1 79 -13 8.7
15:50 1020 30.12 850 25.1 -10.1 13.7 81 -12.9 8.8
15:55 1020 30.12 850 25.1 -10.1 13.8 79 -13.1 8.5
16:00 1020 30.12 850 25.1 -10.2 13.6 80 -13.1 8.5
16:05 1020 30.12 850 25.1 -10.4 13.3 81 -13 8.5
16:10 1020 30.12 849 25.07 -10.1 13.7 81 -12.9 8.8
16:15 1020 30.12 849 25.07 -10.2 13.6 81 -12.9 8.7
16:20 1020 30.12 849 25.07 -10.4 13.4 82 -12.9 8.8
16:25 1020 30.12 849 25.07 -10.2 13.6 82 -12.8 9
16:30 1020 30.12 849 25.07 -10.3 13.6 82 -12.8 8.9
16:35 1020 30.12 849 25.07 -10.2 13.7 82 -12.7 9.1
16:40 1020 30.12 849 25.07 -10.1 13.9 81 -12.7 9.2
16:45 1020 30.12 849 25.07 -10.2 13.7 82 -12.7 9.1
16:50 1020 30.12 849 25.07 -10.5 13.1 83 -12.8 9
16:55 1020 30.12 849 25.07 -10.7 12.7 84 -12.9 8.9
17:00 1020 30.12 849 25.07 -10.6 12.9 85 -12.7 9.1
17:05 1020 30.12 849 25.07 -10.5 13 83 -12.8 8.9
17:10 1020 30.12 849 25.07 -10.7 12.7 85 -12.8 9
17:15 1020 30.12 849 25.07 -10.7 12.7 85 -12.8 8.9
17:20 1020 30.12 849 25.07 -10.7 12.7 85 -12.8 8.9
17:25 1020 30.12 849 25.07 -10.7 12.8 84 -12.8 8.9
17:30 1020 30.12 849 25.07 -10.6 12.8 84 -12.8 8.9
17:35 1019 30.09 849 25.07 -10.6 12.9 84 -12.9 8.9
17:40 1019 30.09 849 25.07 -10.6 12.9 84 -12.8 9
17:45 1019 30.09 848 25.04 -10.7 12.8 84 -12.9 8.7
17:50 1019 30.09 848 25.04 -10.8 12.7 84 -12.9 8.7
17:55 1019 30.09 848 25.04 -10.8 12.6 84 -12.9 8.8
18:00 1019 30.09 848 25.04 -10.7 12.8 85 -12.8 9
18:05 1019 30.09 848 25.04 -10.6 13 84 -12.9 8.9
18:10 1019 30.09 848 25.04 -10.6 12.9 84 -12.8 8.9
18:15 1019 30.09 848 25.04 -10.6 12.8 84 -12.8 9
18:20 1019 30.09 848 25.04 -10.6 13 84 -12.7 9.1
18:25 1019 30.09 848 25.04 -10.5 13.1 84 -12.7 9.1
18:30 1019 30.09 848 25.04 -10.5 13.1 84 -12.6 9.3
18:35 1019 30.09 848 25.04 -10.5 13 84 -12.7 9.1
18:40 1019 30.09 848 25.04 -10.6 13 84 -12.7 9.1
18:45 1019 30.09 848 25.04 -10.5 13.1 84 -12.7 9.1
18:50 1019 30.09 848 25.04 -10.5 13.2 84 -12.7 9.1
18:55 1019 30.09 848 25.04 -10.4 13.2 84 -12.7 9.2
19:00 1019 30.09 848 25.04 -10.4 13.2 84 -12.7 9.2
19:05 1019 30.09 848 25.04 -10.4 13.4 84 -12.6 9.3
19:10 1019 30.09 848 25.04 -10.2 13.6 84 -12.5 9.5
19:15 1019 30.09 848 25.04 -10.2 13.7 84 -12.4 9.6
19:20 1019 30.09 848 25.04 -10.1 13.7 84 -12.4 9.7
19:25 1018 30.06 848 25.04 -10.1 13.8 84 -12.3 9.8
19:30 1018 30.06 848 25.04 -10 14.1 84 -12.2 10
19:35 1018 30.06 848 25.04 -9.9 14.1 84 -12.1 10.2
19:40 1018 30.06 848 25.04 -9.8 14.3 84 -12 10.4
19:45 1018 30.06 848 25.04 -9.7 14.6 83 -12 10.5
19:50 1018 30.06 848 25.04 -9.5 14.9 82 -12 10.5
19:55 1018 30.06 848 25.04 -9.3 15.4 82 -11.8 10.8
20:00 1018 30.06 848 25.04 -9.1 15.7 81 -11.8 10.8
20:05 1018 30.06 847 25.01 -9 15.8 81 -11.8 10.8
20:10 1018 30.06 847 25.01 -9 15.9 81 -11.6 11.1
20:15 1018 30.06 847 25.01 -9 15.9 80 -11.8 10.8
20:20 1018 30.06 847 25.01 -9.3 15.2 82 -11.9 10.6
20:25 1018 30.06 847 25.01 -9.5 14.9 83 -11.9 10.5
20:30 1018 30.06 847 25.01 -9.3 15.2 82 -11.8 10.7
20:35 1018 30.06 847 25.01 -9.2 15.4 82 -11.7 11
20:40 1018 30.06 847 25.01 -8.9 15.9 81 -11.6 11.2
20:45 1018 30.06 847 25.01 -8.8 16.1 81 -11.5 11.4
20:50 1018 30.06 847 25.01 -8.9 15.9 82 -11.4 11.4
20:55 1018 30.06 847 25.01 -9.1 15.7 84 -11.3 11.6
21:00 1018 30.06 847 25.01 -9 15.7 84 -11.2 11.8
21:05 1018 30.06 847 25.01 -9 15.9 84 -11.3 11.7
21:10 1018 30.06 847 25.01 -8.9 15.9 84 -11.2 11.9
21:15 1018 30.06 847 25.01 -9 15.9 84 -11.2 11.9
21:20 1018 30.06 847 25.01 -9 15.7 84 -11.3 11.7
21:25 1018 30.06 847 25.01 -9 15.8 83 -11.3 11.6
21:30 1018 30.06 847 25.01 -9 15.8 84 -11.3 11.7
21:35 1018 30.06 847 25.01 -8.9 15.9 83 -11.3 11.7
21:40 1018 30.06 847 25.01 -8.9 15.9 84 -11.2 11.9
21:45 1018 30.06 847 25.01 -9 15.9 84 -11.2 11.9
21:50 1018 30.06 847 25.01 -9.1 15.7 85 -11.2 11.9
21:55 1018 30.06 847 25.01 -9.1 15.6 85 -11.2 11.9
22:00 1018 30.06 847 25.01 -9.1 15.7 85 -11.1 12.1
22:05 1018 30.06 847 25.01 -9 15.8 84 -11.2 11.9
22:10 1018 30.06 847 25.01 -9 15.9 84 -11.1 11.9
22:15 1018 30.06 847 25.01 -8.9 16 84 -11.1 12
22:20 1018 30.06 847 25.01 -8.8 16.1 84 -11 12.2
22:25 1018 30.06 847 25.01 -8.8 16.1 84 -11 12.2
22:30 1018 30.06 847 25.01 -8.8 16.2 85 -10.9 12.5
22:35 1018 30.06 847 25.01 -8.7 16.3 85 -10.8 12.6
22:40 1018 30.06 847 25.01 -8.6 16.5 86 -10.6 12.9
22:45 1018 30.06 847 25.01 -8.5 16.8 84 -10.7 12.8
22:50 1018 30.06 847 25.01 -8.3 17 84 -10.6 12.9
22:55 1018 30.06 847 25.01 -8.3 17 84 -10.6 12.9
23:00 1018 30.06 847 25.01 -8.3 17.1 84 -10.6 12.9
23:05 1017 30.03 847 25.01 -8.2 17.2 84 -10.5 13
23:10 1017 30.03 847 25.01 -8.2 17.3 84 -10.5 13.2
23:15 1017 30.03 847 25.01 -8.2 17.2 84 -10.5 13.2
23:20 1017 30.03 847 25.01 -8.3 17.1 84 -10.5 13.2
23:25 1017 30.03 847 25.01 -8.3 17.2 85 -10.4 13.3
23:30 1017 30.03 846 24.98 -8.2 17.2 85 -10.3 13.4
23:35 1017 30.03 846 24.98 -8.3 17 85 -10.4 13.3
23:40 1017 30.03 846 24.98 -8.3 17.1 85 -10.4 13.4
23:45 1017 30.03 846 24.98 -8.3 17.1 86 -10.3 13.5
23:50 1017 30.03 846 24.98 -8.2 17.3 86 -10.2 13.7
23:55 1017 30.03 846 24.98 -8 17.5 85 -10.1 13.9
24:00 1017 30.03 846 24.98 -8 17.6 86 -10 14.1